Terminal Aerodrome Forecast
Issued by NWS

Current Version | Previous Version | Graphics & Text | Print | Product List | Glossary On
Versions: 1 2 3 4 5 6 7 8 9 10 11 12 13 14 15 16 17 18 19 20 21 22 23 24 25
000
FTUS41 KRLX 271728
TAFCKB
TAF
KCKB 271728Z 2718/2818 23008G17KT P6SM SCT025 BKN050
     FM272200 22007KT P6SM SCT025
     FM280200 VRB03KT P6SM SCT040
     FM281000 00000KT P6SM BKN040
     FM281200 00000KT P6SM BKN025
     FM281500 00000KT P6SM BKN035
     FM281700 VRB03KT P6SM VCTS BKN040CB=

USA.gov is the U.S. government's official web portal to all federal, state and local government web resources and services.